Time;durP1;ratioP1;P1;durP2;ratioP2;P2;SDS_P1;SDS_P2;PMS_P1;PMS_P2;Temp;Humidity;BMP_temperature;BMP_pressure;BME280_temperature;BME280_humidity;BME280_pressure;Samples;Min_cycle;Max_cycle;Signal;HPM_P1;HPM_P2
2023/03/10 00:02:25;;;;;;;23.00;16.90;;;;;;;;;;5064270;28;20242;-51
2023/03/10 00:04:51;;;;;;;23.20;17.17;;;;;;;;;;5062550;28;20254;-52
2023/03/10 00:07:18;;;;;;;23.67;16.27;;;;;;;;;;5062114;28;20242;-52
2023/03/10 00:09:45;;;;;;;24.60;16.17;;;;;;;;;;5060821;28;20223;-52
2023/03/10 00:12:13;;;;;;;22.17;16.13;;;;;;;;;;5057111;28;20317;-52
2023/03/10 00:14:39;;;;;;;26.20;17.37;;;;;;;;;;5067809;28;20647;-51
2023/03/10 00:17:06;;;;;;;23.00;15.50;;;;;;;;;;5064773;28;20242;-51
2023/03/10 00:19:32;;;;;;;19.73;14.43;;;;;;;;;;5065398;28;20253;-51
2023/03/10 00:21:59;;;;;;;20.63;14.90;;;;;;;;;;5065635;28;20226;-50
2023/03/10 00:24:25;;;;;;;21.90;15.63;;;;;;;;;;5064306;28;20611;-52
2023/03/10 00:26:52;;;;;;;21.03;15.03;;;;;;;;;;5054013;28;20321;-52
2023/03/10 00:29:20;;;;;;;21.60;15.13;;;;;;;;;;5067994;28;20237;-51
2023/03/10 00:31:47;;;;;;;23.30;15.50;;;;;;;;;;5067117;28;20237;-51
2023/03/10 00:34:13;;;;;;;19.60;14.47;;;;;;;;;;5070616;28;20231;-52
2023/03/10 00:36:39;;;;;;;18.83;14.17;;;;;;;;;;5075034;28;20526;-52
2023/03/10 00:39:07;;;;;;;17.47;12.77;;;;;;;;;;5077477;28;20305;-52
2023/03/10 00:41:35;;;;;;;20.23;14.73;;;;;;;;;;5079388;28;20384;-53
2023/03/10 00:44:02;;;;;;;19.40;14.30;;;;;;;;;;5080783;28;20236;-51
2023/03/10 00:46:31;;;;;;;19.40;13.03;;;;;;;;;;5066456;28;20235;-52
2023/03/10 00:48:58;;;;;;;19.77;13.60;;;;;;;;;;5067018;28;20237;-53
2023/03/10 00:51:25;;;;;;;15.67;12.47;;;;;;;;;;5066739;28;20870;-51
2023/03/10 00:53:51;;;;;;;18.17;13.43;;;;;;;;;;5068073;28;20342;-51
2023/03/10 00:56:18;;;;;;;17.47;13.10;;;;;;;;;;5067143;28;20246;-52
2023/03/10 00:58:46;;;;;;;17.93;13.03;;;;;;;;;;5065584;28;20239;-51
2023/03/10 01:01:14;;;;;;;16.57;12.53;;;;;;;;;;5060138;28;20617;-52
2023/03/10 01:03:41;;;;;;;19.73;13.97;;;;;;;;;;5067244;28;20350;-52
2023/03/10 01:06:08;;;;;;;19.93;13.73;;;;;;;;;;5065943;28;20620;-51
2023/03/10 01:08:34;;;;;;;21.03;13.57;;;;;;;;;;5065724;28;20241;-52
2023/03/10 01:11:00;;;;;;;16.77;13.30;;;;;;;;;;5067915;28;20314;-51
2023/03/10 01:13:27;;;;;;;18.70;12.73;;;;;;;;;;5059511;28;20238;-52
2023/03/10 01:15:53;;;;;;;15.80;11.67;;;;;;;;;;5069332;28;20613;-51
2023/03/10 01:18:22;;;;;;;21.87;13.63;;;;;;;;;;5066836;28;20234;-51
2023/03/10 01:20:49;;;;;;;17.07;13.33;;;;;;;;;;5065053;28;20240;-52
2023/03/10 01:23:17;;;;;;;19.33;12.37;;;;;;;;;;5062995;28;20239;-51
2023/03/10 01:25:44;;;;;;;18.10;13.37;;;;;;;;;;5079991;28;20232;-52
2023/03/10 01:28:10;;;;;;;17.93;13.03;;;;;;;;;;5077180;28;20321;-52
2023/03/10 01:30:37;;;;;;;20.67;12.63;;;;;;;;;;5073899;28;20306;-53
2023/03/10 01:33:03;;;;;;;17.43;12.97;;;;;;;;;;5079296;28;20238;-53
2023/03/10 01:35:30;;;;;;;16.63;11.97;;;;;;;;;;5085345;28;20293;-51
2023/03/10 01:37:58;;;;;;;17.93;12.87;;;;;;;;;;5071375;28;20326;-51
2023/03/10 01:40:27;;;;;;;18.47;13.00;;;;;;;;;;5067413;28;20226;-51
2023/03/10 01:43:14;;;;;;;16.07;12.40;;;;;;;;;;5066891;28;20238;-51
2023/03/10 01:45:59;;;;;;;20.63;13.40;;;;;;;;;;5060419;28;20227;-55
2023/03/10 01:48:25;;;;;;;17.27;11.83;;;;;;;;;;5064475;28;20233;-54
2023/03/10 01:51:13;;;;;;;13.10;11.13;;;;;;;;;;5056627;28;20313;-53
2023/03/10 01:53:41;;;;;;;15.33;11.43;;;;;;;;;;5065682;28;20288;-51
2023/03/10 01:56:08;;;;;;;20.03;12.27;;;;;;;;;;5064105;28;20230;-52
2023/03/10 01:58:37;;;;;;;15.83;11.40;;;;;;;;;;5057559;28;20230;-51
2023/03/10 02:01:03;;;;;;;16.17;11.70;;;;;;;;;;5065185;28;20317;-53
2023/03/10 02:03:32;;;;;;;16.67;12.33;;;;;;;;;;5065184;28;20695;-51
2023/03/10 02:06:00;;;;;;;18.87;12.33;;;;;;;;;;5064908;28;20321;-53
2023/03/10 02:08:29;;;;;;;16.27;10.43;;;;;;;;;;5062239;28;20322;-53
2023/03/10 02:10:57;;;;;;;16.20;11.37;;;;;;;;;;5064773;28;20237;-52
2023/03/10 02:13:23;;;;;;;12.00;9.67;;;;;;;;;;5060392;28;20234;-52
2023/03/10 02:15:50;;;;;;;16.13;11.53;;;;;;;;;;5060639;28;20230;-52
2023/03/10 02:18:17;;;;;;;15.67;11.43;;;;;;;;;;5059025;28;20814;-54
2023/03/10 02:20:47;;;;;;;15.03;11.10;;;;;;;;;;5053284;28;21891;-51
2023/03/10 02:23:16;;;;;;;15.57;10.53;;;;;;;;;;5064502;28;20443;-51
2023/03/10 02:25:45;;;;;;;16.77;11.20;;;;;;;;;;5065615;28;20726;-52
2023/03/10 02:28:13;;;;;;;14.83;11.37;;;;;;;;;;5061081;28;20241;-52
2023/03/10 02:30:40;;;;;;;17.20;12.10;;;;;;;;;;5060716;28;20325;-52
2023/03/10 02:33:09;;;;;;;12.60;9.77;;;;;;;;;;5063074;28;20251;-51
2023/03/10 02:35:35;;;;;;;14.03;10.30;;;;;;;;;;5064614;28;20250;-52
2023/03/10 02:38:02;;;;;;;14.77;10.30;;;;;;;;;;5064318;28;20299;-51
2023/03/10 02:40:32;;;;;;;16.07;11.00;;;;;;;;;;5063530;28;20234;-51
2023/03/10 02:42:59;;;;;;;14.40;10.30;;;;;;;;;;5059979;28;20234;-52
2023/03/10 02:45:28;;;;;;;14.83;10.67;;;;;;;;;;5061087;28;20314;-53
2023/03/10 02:47:54;;;;;;;17.33;11.40;;;;;;;;;;5059317;28;20599;-52
2023/03/10 02:50:22;;;;;;;14.40;11.67;;;;;;;;;;5062848;28;20821;-52
2023/03/10 02:52:51;;;;;;;18.03;13.07;;;;;;;;;;5063861;28;20231;-52
2023/03/10 02:55:18;;;;;;;16.30;10.23;;;;;;;;;;5063749;28;20265;-53
2023/03/10 02:57:44;;;;;;;16.13;10.63;;;;;;;;;;5063787;28;20811;-52
2023/03/10 03:00:12;;;;;;;13.80;10.90;;;;;;;;;;5063907;28;20237;-57
2023/03/10 03:02:40;;;;;;;15.23;10.70;;;;;;;;;;5062687;28;20659;-51
2023/03/10 03:05:07;;;;;;;16.77;11.87;;;;;;;;;;5062062;28;20712;-51
2023/03/10 03:07:33;;;;;;;14.07;10.33;;;;;;;;;;5061465;28;20234;-51
2023/03/10 03:10:00;;;;;;;12.10;9.17;;;;;;;;;;5063424;28;20230;-50
2023/03/10 03:12:26;;;;;;;15.55;10.30;;;;;;;;;;5062077;28;20241;-52
2023/03/10 03:14:53;;;;;;;12.97;9.40;;;;;;;;;;5062396;28;20226;-51
2023/03/10 03:17:19;;;;;;;11.87;9.43;;;;;;;;;;5062684;28;20238;-51
2023/03/10 03:19:47;;;;;;;14.10;10.07;;;;;;;;;;5061550;28;20238;-51
2023/03/10 03:22:14;;;;;;;14.47;10.97;;;;;;;;;;5057796;28;20333;-51
2023/03/10 03:24:40;;;;;;;14.00;8.87;;;;;;;;;;5062023;28;20759;-52
2023/03/10 03:27:07;;;;;;;12.57;9.33;;;;;;;;;;5060917;28;20378;-51
2023/03/10 03:29:34;;;;;;;11.43;8.80;;;;;;;;;;5061139;28;20229;-51
2023/03/10 03:32:00;;;;;;;13.20;9.07;;;;;;;;;;5064454;28;20269;-52
2023/03/10 03:34:27;;;;;;;10.63;8.03;;;;;;;;;;5074797;28;20237;-52
2023/03/10 03:36:55;;;;;;;13.90;9.43;;;;;;;;;;5074735;28;20766;-51
2023/03/10 03:39:21;;;;;;;11.90;8.23;;;;;;;;;;5075131;28;20771;-54
2023/03/10 03:41:51;;;;;;;11.57;8.00;;;;;;;;;;5075400;28;20248;-54
2023/03/10 03:44:18;;;;;;;11.63;9.43;;;;;;;;;;5078236;28;20299;-57
2023/03/10 03:46:45;;;;;;;13.30;9.20;;;;;;;;;;5077829;28;20249;-53
2023/03/10 03:49:11;;;;;;;10.10;7.77;;;;;;;;;;5075823;28;20325;-52
2023/03/10 03:51:38;;;;;;;12.10;8.53;;;;;;;;;;5066194;28;20344;-59
2023/03/10 03:54:06;;;;;;;14.03;8.80;;;;;;;;;;5066445;28;20592;-51
2023/03/10 03:56:32;;;;;;;11.23;8.40;;;;;;;;;;5066869;28;20733;-51
2023/03/10 03:58:59;;;;;;;13.07;8.40;;;;;;;;;;5064366;28;20244;-51
2023/03/10 04:01:26;;;;;;;10.87;7.57;;;;;;;;;;5066996;28;20234;-51
2023/03/10 04:03:52;;;;;;;12.60;8.13;;;;;;;;;;5072020;28;20238;-52
2023/03/10 04:06:19;;;;;;;10.27;8.43;;;;;;;;;;5077485;28;20230;-53
2023/03/10 04:08:46;;;;;;;9.17;7.40;;;;;;;;;;5061914;28;20226;-51
2023/03/10 04:11:14;;;;;;;10.17;8.17;;;;;;;;;;5066642;28;20227;-51
2023/03/10 04:13:40;;;;;;;10.47;7.93;;;;;;;;;;5064814;28;20249;-51
2023/03/10 04:16:07;;;;;;;9.90;7.27;;;;;;;;;;5066589;28;20230;-52
2023/03/10 04:18:34;;;;;;;10.57;8.20;;;;;;;;;;5063986;28;20262;-51
2023/03/10 04:21:00;;;;;;;9.93;8.07;;;;;;;;;;5064221;28;20234;-51
2023/03/10 04:23:27;;;;;;;10.47;7.70;;;;;;;;;;5063943;28;20236;-52
2023/03/10 04:25:53;;;;;;;10.77;8.30;;;;;;;;;;5064004;28;21346;-51
2023/03/10 04:28:21;;;;;;;9.53;7.80;;;;;;;;;;5063163;28;20234;-52
2023/03/10 04:30:48;;;;;;;10.77;8.40;;;;;;;;;;5067231;28;20715;-52
2023/03/10 04:33:14;;;;;;;9.53;7.20;;;;;;;;;;5065590;28;20270;-51
2023/03/10 04:35:41;;;;;;;9.40;7.43;;;;;;;;;;5064048;28;20237;-52
2023/03/10 04:38:08;;;;;;;9.90;8.00;;;;;;;;;;5062832;28;20328;-52
2023/03/10 04:40:34;;;;;;;8.73;6.70;;;;;;;;;;5063187;28;20288;-52
2023/03/10 04:43:01;;;;;;;8.70;6.63;;;;;;;;;;5064527;28;20723;-52
2023/03/10 04:45:29;;;;;;;12.63;7.03;;;;;;;;;;5061842;28;20227;-52
2023/03/10 04:47:55;;;;;;;9.47;6.83;;;;;;;;;;5063312;28;20242;-51
2023/03/10 04:50:22;;;;;;;8.97;7.13;;;;;;;;;;5063684;28;20483;-51
2023/03/10 04:52:49;;;;;;;8.03;6.50;;;;;;;;;;5063991;28;20246;-54
2023/03/10 04:55:15;;;;;;;8.03;6.70;;;;;;;;;;5057136;28;20300;-52
2023/03/10 04:57:42;;;;;;;8.00;6.03;;;;;;;;;;5057925;28;20765;-52
2023/03/10 05:00:11;;;;;;;8.60;6.07;;;;;;;;;;5064181;28;20296;-51
2023/03/10 05:02:39;;;;;;;8.43;6.43;;;;;;;;;;5064224;28;20242;-51
2023/03/10 05:05:06;;;;;;;8.07;6.80;;;;;;;;;;5054568;28;20237;-51
2023/03/10 05:07:33;;;;;;;8.43;7.10;;;;;;;;;;5055095;28;20249;-52
2023/03/10 05:10:01;;;;;;;8.37;6.67;;;;;;;;;;5050704;28;20242;-51
2023/03/10 05:12:27;;;;;;;8.00;6.70;;;;;;;;;;5051312;28;20240;-51
2023/03/10 05:14:54;;;;;;;9.73;6.83;;;;;;;;;;5050145;28;20235;-52
2023/03/10 05:17:20;;;;;;;8.87;6.30;;;;;;;;;;5047904;28;20237;-51
2023/03/10 05:19:48;;;;;;;8.23;6.73;;;;;;;;;;5049067;28;20230;-51
2023/03/10 05:22:15;;;;;;;10.77;6.90;;;;;;;;;;5053696;28;20233;-52
2023/03/10 05:24:42;;;;;;;7.97;6.87;;;;;;;;;;5052342;28;20238;-51
2023/03/10 05:27:09;;;;;;;8.10;6.57;;;;;;;;;;5055646;28;20241;-52
2023/03/10 05:29:37;;;;;;;7.00;6.23;;;;;;;;;;5048139;28;20252;-52
2023/03/10 05:32:04;;;;;;;10.40;7.23;;;;;;;;;;5052709;28;20242;-52
2023/03/10 05:34:31;;;;;;;8.33;7.03;;;;;;;;;;5055173;28;20327;-51
2023/03/10 05:36:58;;;;;;;7.97;6.73;;;;;;;;;;5050787;28;20242;-52
2023/03/10 05:39:25;;;;;;;7.83;6.87;;;;;;;;;;5054223;28;20222;-51
2023/03/10 05:41:51;;;;;;;10.27;7.83;;;;;;;;;;5055232;28;20325;-52
2023/03/10 05:44:18;;;;;;;9.57;7.33;;;;;;;;;;5052896;28;20941;-53
2023/03/10 05:46:44;;;;;;;7.27;6.57;;;;;;;;;;5049448;28;20238;-52
2023/03/10 05:49:11;;;;;;;9.60;7.43;;;;;;;;;;5053538;28;21031;-52
2023/03/10 05:51:37;;;;;;;9.27;7.87;;;;;;;;;;5052614;28;20241;-51
2023/03/10 05:54:05;;;;;;;9.30;7.70;;;;;;;;;;5053473;28;20295;-52
2023/03/10 05:56:32;;;;;;;10.30;8.10;;;;;;;;;;5051825;28;20318;-51
2023/03/10 05:58:59;;;;;;;9.30;7.53;;;;;;;;;;5051345;28;20226;-51
2023/03/10 06:01:25;;;;;;;8.47;7.27;;;;;;;;;;5049139;28;20355;-52
2023/03/10 06:03:52;;;;;;;8.80;7.33;;;;;;;;;;5049117;28;20227;-51
2023/03/10 06:06:18;;;;;;;9.07;8.03;;;;;;;;;;5051427;28;20848;-51
2023/03/10 06:08:45;;;;;;;9.43;8.53;;;;;;;;;;5050697;28;20320;-52
2023/03/10 06:11:13;;;;;;;8.90;8.00;;;;;;;;;;5053542;28;20969;-51
2023/03/10 06:13:40;;;;;;;10.63;8.03;;;;;;;;;;5053384;28;20234;-51
2023/03/10 06:16:07;;;;;;;8.47;7.47;;;;;;;;;;5051795;28;20652;-52
2023/03/10 06:18:34;;;;;;;8.53;7.63;;;;;;;;;;5053055;28;20237;-52
2023/03/10 06:21:03;;;;;;;9.40;7.57;;;;;;;;;;5053283;28;20313;-52
2023/03/10 06:23:30;;;;;;;9.57;8.13;;;;;;;;;;5050620;28;20239;-50
2023/03/10 06:25:57;;;;;;;8.77;7.87;;;;;;;;;;5053002;28;20235;-52
2023/03/10 06:28:26;;;;;;;8.97;8.07;;;;;;;;;;5051484;28;20222;-52
2023/03/10 06:30:55;;;;;;;9.23;8.33;;;;;;;;;;5052147;28;20236;-52
2023/03/10 06:33:22;;;;;;;9.87;7.67;;;;;;;;;;5051985;28;20242;-53
2023/03/10 06:35:49;;;;;;;9.87;8.57;;;;;;;;;;5052088;28;20239;-52
2023/03/10 06:38:15;;;;;;;11.30;7.90;;;;;;;;;;5053282;28;20238;-52
2023/03/10 06:40:42;;;;;;;9.60;8.00;;;;;;;;;;5052066;28;20673;-52
2023/03/10 06:43:08;;;;;;;9.30;7.43;;;;;;;;;;5053422;28;20242;-52
2023/03/10 06:45:36;;;;;;;9.10;7.97;;;;;;;;;;5057124;28;20238;-51
2023/03/10 06:48:03;;;;;;;11.33;8.87;;;;;;;;;;5056951;28;20226;-52
2023/03/10 06:50:29;;;;;;;10.60;7.90;;;;;;;;;;5064111;28;20337;-54
2023/03/10 06:52:56;;;;;;;11.97;8.60;;;;;;;;;;5061474;28;20295;-52
2023/03/10 06:55:23;;;;;;;8.97;7.87;;;;;;;;;;5054752;28;20242;-52
2023/03/10 06:57:49;;;;;;;11.47;8.03;;;;;;;;;;5052873;28;20249;-56
2023/03/10 07:00:17;;;;;;;9.60;7.80;;;;;;;;;;5053074;28;20977;-51
2023/03/10 07:02:45;;;;;;;10.97;7.77;;;;;;;;;;5053380;28;20245;-51
2023/03/10 07:05:12;;;;;;;11.97;9.10;;;;;;;;;;5051076;28;20795;-51
2023/03/10 07:07:39;;;;;;;11.70;8.63;;;;;;;;;;5048319;28;20238;-51
2023/03/10 07:10:06;;;;;;;10.70;8.70;;;;;;;;;;5052595;28;20659;-52
2023/03/10 07:12:33;;;;;;;10.20;8.30;;;;;;;;;;5050640;28;20257;-52
2023/03/10 07:14:59;;;;;;;8.70;7.83;;;;;;;;;;5050934;28;20235;-52
2023/03/10 07:17:26;;;;;;;9.40;8.33;;;;;;;;;;5051005;28;20328;-53
2023/03/10 07:19:54;;;;;;;11.47;8.90;;;;;;;;;;5047458;28;20230;-51
2023/03/10 07:22:21;;;;;;;11.73;8.93;;;;;;;;;;5049665;28;20698;-51
2023/03/10 07:24:47;;;;;;;11.73;9.50;;;;;;;;;;5054382;28;20286;-51
2023/03/10 07:27:13;;;;;;;10.47;9.23;;;;;;;;;;5052288;28;20235;-52
2023/03/10 07:29:40;;;;;;;10.47;7.80;;;;;;;;;;5054986;28;20269;-51
2023/03/10 07:32:06;;;;;;;10.90;8.83;;;;;;;;;;5050722;28;20337;-52
2023/03/10 07:34:33;;;;;;;12.60;8.83;;;;;;;;;;5053890;28;20660;-52
2023/03/10 07:37:01;;;;;;;10.67;9.30;;;;;;;;;;5052846;28;20317;-52
2023/03/10 07:39:27;;;;;;;11.80;10.03;;;;;;;;;;5051156;28;20970;-52
2023/03/10 07:41:54;;;;;;;10.93;9.10;;;;;;;;;;5050799;28;20235;-52
2023/03/10 07:44:20;;;;;;;10.40;8.90;;;;;;;;;;5052798;28;21061;-52
2023/03/10 07:46:47;;;;;;;11.67;9.10;;;;;;;;;;5053673;28;20242;-51
2023/03/10 07:49:13;;;;;;;10.53;8.73;;;;;;;;;;5053029;28;20328;-51
2023/03/10 07:51:40;;;;;;;10.00;8.73;;;;;;;;;;5052916;28;20247;-51
2023/03/10 07:54:08;;;;;;;11.60;8.60;;;;;;;;;;5051601;28;20249;-51
2023/03/10 07:56:34;;;;;;;12.13;9.50;;;;;;;;;;5050761;28;20279;-53
2023/03/10 07:59:01;;;;;;;11.63;8.97;;;;;;;;;;5054124;28;20700;-52
2023/03/10 08:01:27;;;;;;;12.50;8.97;;;;;;;;;;5052178;28;20830;-51
2023/03/10 08:03:54;;;;;;;11.73;8.97;;;;;;;;;;5050505;28;20287;-50
2023/03/10 08:06:22;;;;;;;11.53;8.50;;;;;;;;;;5054115;28;20238;-52
2023/03/10 08:08:48;;;;;;;11.03;9.87;;;;;;;;;;5050353;28;20362;-52
2023/03/10 08:11:16;;;;;;;10.70;9.10;;;;;;;;;;5052696;28;20237;-51
2023/03/10 08:13:44;;;;;;;13.27;9.00;;;;;;;;;;5054172;28;20316;-52
2023/03/10 08:16:11;;;;;;;13.10;9.10;;;;;;;;;;5063919;28;20241;-51
2023/03/10 08:18:37;;;;;;;10.83;8.77;;;;;;;;;;5062840;28;20238;-51
2023/03/10 08:21:05;;;;;;;14.10;9.83;;;;;;;;;;5062774;28;20743;-51
2023/03/10 08:23:32;;;;;;;9.73;8.57;;;;;;;;;;5063033;28;20242;-51
2023/03/10 08:26:00;;;;;;;11.53;8.73;;;;;;;;;;5063591;28;20628;-52
2023/03/10 08:28:29;;;;;;;11.70;9.13;;;;;;;;;;5060783;28;20241;-51
2023/03/10 08:30:57;;;;;;;11.37;8.53;;;;;;;;;;5062901;28;20239;-52
2023/03/10 08:33:23;;;;;;;10.77;8.80;;;;;;;;;;5064365;28;20231;-51
2023/03/10 08:35:49;;;;;;;10.20;9.10;;;;;;;;;;5066978;28;20238;-56
2023/03/10 08:38:16;;;;;;;14.13;9.90;;;;;;;;;;5064886;28;20234;-51
2023/03/10 08:40:43;;;;;;;12.93;9.97;;;;;;;;;;5068519;28;20227;-51
2023/03/10 08:43:09;;;;;;;13.43;9.30;;;;;;;;;;5067132;28;20246;-52
2023/03/10 08:45:37;;;;;;;11.73;9.37;;;;;;;;;;5064699;28;20739;-52
2023/03/10 08:48:04;;;;;;;10.87;9.27;;;;;;;;;;5067375;28;20236;-51
2023/03/10 08:50:30;;;;;;;8.80;7.90;;;;;;;;;;5065465;28;20310;-51
2023/03/10 08:52:57;;;;;;;13.00;9.07;;;;;;;;;;5064238;28;20244;-51
2023/03/10 08:55:23;;;;;;;12.40;8.90;;;;;;;;;;5065252;28;20261;-51
2023/03/10 08:57:50;;;;;;;11.10;8.70;;;;;;;;;;5061143;28;20242;-52
2023/03/10 09:00:17;;;;;;;9.83;8.73;;;;;;;;;;5065404;28;20337;-51
2023/03/10 09:02:45;;;;;;;10.50;8.67;;;;;;;;;;5063728;28;20713;-52
2023/03/10 09:05:12;;;;;;;14.20;10.40;;;;;;;;;;5066357;28;20284;-51
2023/03/10 09:07:38;;;;;;;13.40;11.07;;;;;;;;;;5061400;28;20319;-51
2023/03/10 09:10:05;;;;;;;13.00;9.67;;;;;;;;;;5064491;28;20248;-52
2023/03/10 09:12:31;;;;;;;12.03;9.63;;;;;;;;;;5064393;28;20228;-51
2023/03/10 09:14:58;;;;;;;13.50;10.17;;;;;;;;;;5064734;28;20241;-52
2023/03/10 09:17:25;;;;;;;12.23;9.70;;;;;;;;;;5063172;28;20260;-52
2023/03/10 09:19:52;;;;;;;13.33;11.30;;;;;;;;;;5063173;28;20228;-52
2023/03/10 09:22:19;;;;;;;14.57;10.70;;;;;;;;;;5061117;28;20267;-52
2023/03/10 09:24:45;;;;;;;12.23;9.30;;;;;;;;;;5063706;28;20228;-51
2023/03/10 09:27:12;;;;;;;11.07;9.83;;;;;;;;;;5063793;28;20753;-51
2023/03/10 09:29:39;;;;;;;12.70;10.20;;;;;;;;;;5064948;28;20316;-51
2023/03/10 09:32:05;;;;;;;12.43;9.60;;;;;;;;;;5059444;28;20247;-52
2023/03/10 09:34:32;;;;;;;12.83;11.00;;;;;;;;;;5065721;28;20235;-52
2023/03/10 09:37:00;;;;;;;13.97;11.27;;;;;;;;;;5062660;28;20253;-51
2023/03/10 09:39:27;;;;;;;12.17;10.73;;;;;;;;;;5065805;28;20238;-52
2023/03/10 09:42:12;;;;;;;14.53;12.43;;;;;;;;;;5064584;28;20235;-51
2023/03/10 09:44:42;;;;;;;13.83;12.33;;;;;;;;;;5064551;28;20223;-52
2023/03/10 09:47:20;;;;;;;15.80;12.73;;;;;;;;;;5065977;28;20232;-52
2023/03/10 09:49:50;;;;;;;15.67;12.73;;;;;;;;;;5067215;28;20249;-52
2023/03/10 09:52:21;;;;;;;14.17;12.60;;;;;;;;;;5065707;28;20826;-51
2023/03/10 09:54:55;;;;;;;13.00;10.83;;;;;;;;;;5053779;28;20306;-51
2023/03/10 09:57:22;;;;;;;15.03;11.30;;;;;;;;;;5061836;28;20242;-52
2023/03/10 09:59:51;;;;;;;13.17;11.57;;;;;;;;;;5071296;28;20270;-51
2023/03/10 10:02:20;;;;;;;13.93;11.57;;;;;;;;;;5058819;28;20235;-51
2023/03/10 10:04:51;;;;;;;14.73;11.90;;;;;;;;;;5060956;28;20236;-51
2023/03/10 10:07:20;;;;;;;16.93;12.77;;;;;;;;;;5057373;28;20250;-51
2023/03/10 10:09:48;;;;;;;14.83;12.30;;;;;;;;;;5065325;28;20239;-52
2023/03/10 10:12:15;;;;;;;14.07;12.07;;;;;;;;;;5062291;28;20619;-52
2023/03/10 10:14:42;;;;;;;14.00;10.83;;;;;;;;;;5056214;28;20394;-53
2023/03/10 10:17:09;;;;;;;16.80;11.30;;;;;;;;;;5062325;28;20239;-52
2023/03/10 10:19:38;;;;;;;15.37;10.90;;;;;;;;;;5063438;28;20241;-52
2023/03/10 10:22:08;;;;;;;11.97;10.67;;;;;;;;;;5061590;28;20774;-50
2023/03/10 10:24:36;;;;;;;12.53;11.10;;;;;;;;;;5063092;28;20231;-51
2023/03/10 10:27:02;;;;;;;16.30;11.30;;;;;;;;;;5065401;28;20709;-52
2023/03/10 10:29:33;;;;;;;17.57;12.63;;;;;;;;;;5063423;28;20231;-52
2023/03/10 10:32:07;;;;;;;15.90;13.03;;;;;;;;;;5061571;28;20335;-51
2023/03/10 10:34:33;;;;;;;16.03;13.07;;;;;;;;;;5059204;28;20227;-51
2023/03/10 10:37:00;;;;;;;13.07;11.57;;;;;;;;;;5062892;28;20326;-52
2023/03/10 10:39:30;;;;;;;14.83;12.40;;;;;;;;;;5063798;28;20677;-51
2023/03/10 10:42:11;;;;;;;15.63;12.87;;;;;;;;;;5064023;28;20330;-52
2023/03/10 10:44:40;;;;;;;18.17;13.20;;;;;;;;;;5060817;28;20242;-52
2023/03/10 10:47:17;;;;;;;13.83;12.40;;;;;;;;;;5065067;28;20390;-51
2023/03/10 10:49:44;;;;;;;16.37;12.90;;;;;;;;;;5057371;28;20613;-50
2023/03/10 10:52:19;;;;;;;15.97;12.30;;;;;;;;;;5059654;28;20296;-52
2023/03/10 10:54:53;;;;;;;22.63;11.40;;;;;;;;;;5064092;28;20233;-51
2023/03/10 10:57:21;;;;;;;13.07;11.70;;;;;;;;;;5061371;28;20234;-51
2023/03/10 10:59:48;;;;;;;13.33;11.83;;;;;;;;;;5062444;28;20322;-51
2023/03/10 11:02:21;;;;;;;14.10;12.40;;;;;;;;;;5062315;28;20235;-53
2023/03/10 11:04:48;;;;;;;13.93;11.00;;;;;;;;;;5059046;28;20231;-52
2023/03/10 11:07:17;;;;;;;15.93;11.57;;;;;;;;;;5064474;28;20253;-53
2023/03/10 11:09:44;;;;;;;14.13;11.90;;;;;;;;;;5059624;28;20259;-51
2023/03/10 11:12:18;;;;;;;14.23;12.13;;;;;;;;;;5065834;28;20230;-51
2023/03/10 11:14:52;;;;;;;16.83;12.53;;;;;;;;;;5064288;28;20227;-51
2023/03/10 11:17:22;;;;;;;14.73;13.23;;;;;;;;;;5064667;28;20242;-52
2023/03/10 11:19:52;;;;;;;16.17;12.53;;;;;;;;;;5065771;28;20247;-52
2023/03/10 11:22:23;;;;;;;14.77;12.17;;;;;;;;;;5063150;28;20325;-51
2023/03/10 11:24:52;;;;;;;15.73;11.80;;;;;;;;;;5063373;28;20682;-51
2023/03/10 11:27:21;;;;;;;14.43;12.93;;;;;;;;;;5062221;28;20237;-51
2023/03/10 11:29:56;;;;;;;15.43;13.83;;;;;;;;;;5061041;28;20681;-52
2023/03/10 11:32:26;;;;;;;13.37;11.93;;;;;;;;;;5060890;28;20243;-51
2023/03/10 11:34:53;;;;;;;12.30;11.00;;;;;;;;;;5060912;28;20706;-53
2023/03/10 11:37:25;;;;;;;13.53;11.03;;;;;;;;;;5057090;28;20673;-51
2023/03/10 11:39:54;;;;;;;11.87;10.60;;;;;;;;;;5059839;28;20705;-52
2023/03/10 11:42:27;;;;;;;11.20;9.97;;;;;;;;;;5057613;28;20232;-52
2023/03/10 11:45:01;;;;;;;9.93;8.93;;;;;;;;;;5059461;28;20238;-51
2023/03/10 11:47:33;;;;;;;10.73;9.60;;;;;;;;;;5061039;28;20224;-52
2023/03/10 11:50:03;;;;;;;12.37;8.70;;;;;;;;;;5062331;28;20227;-52
2023/03/10 11:52:30;;;;;;;9.43;7.90;;;;;;;;;;5061674;28;20243;-52
2023/03/10 11:54:59;;;;;;;11.30;8.43;;;;;;;;;;5061628;28;20235;-52
2023/03/10 11:57:27;;;;;;;9.33;8.43;;;;;;;;;;5062704;28;20319;-51
2023/03/10 11:59:56;;;;;;;8.47;7.53;;;;;;;;;;5062152;28;20317;-52
2023/03/10 12:02:25;;;;;;;8.83;8.03;;;;;;;;;;5058647;28;20239;-52
2023/03/10 12:04:57;;;;;;;9.37;8.43;;;;;;;;;;5064241;28;20231;-52
2023/03/10 12:07:26;;;;;;;10.03;8.20;;;;;;;;;;5060850;28;20237;-53
2023/03/10 12:09:54;;;;;;;9.27;7.70;;;;;;;;;;5066767;28;20243;-52
2023/03/10 12:12:23;;;;;;;10.83;8.73;;;;;;;;;;5069188;28;20258;-54
2023/03/10 12:14:50;;;;;;;8.50;7.60;;;;;;;;;;5062600;28;20262;-57
2023/03/10 12:17:17;;;;;;;9.60;8.60;;;;;;;;;;5065936;28;20235;-51
2023/03/10 12:20:02;;;;;;;8.83;7.63;;;;;;;;;;5065079;28;20231;-52
2023/03/10 12:22:36;;;;;;;8.70;7.80;;;;;;;;;;5064924;28;20745;-52
2023/03/10 12:25:03;;;;;;;10.70;9.10;;;;;;;;;;5065854;28;20938;-52
2023/03/10 12:27:29;;;;;;;9.33;8.30;;;;;;;;;;5063349;28;20226;-52
2023/03/10 12:29:55;;;;;;;10.83;9.70;;;;;;;;;;5069333;28;20326;-53
2023/03/10 12:32:41;;;;;;;8.53;7.70;;;;;;;;;;5077183;28;20306;-52
2023/03/10 12:35:22;;;;;;;9.33;8.43;;;;;;;;;;5081533;28;20238;-51
2023/03/10 12:37:50;;;;;;;14.80;8.03;;;;;;;;;;5063263;28;20231;-51
2023/03/10 12:40:37;;;;;;;9.20;7.77;;;;;;;;;;5065271;28;20231;-54
2023/03/10 12:43:19;;;;;;;9.13;8.33;;;;;;;;;;5057176;28;20824;-52
2023/03/10 12:45:45;;;;;;;8.00;7.23;;;;;;;;;;5063973;28;20231;-53
2023/03/10 12:48:15;;;;;;;7.63;6.83;;;;;;;;;;5066800;28;20749;-52
2023/03/10 12:50:45;;;;;;;7.60;6.90;;;;;;;;;;5064809;28;20316;-52
2023/03/10 12:53:24;;;;;;;7.83;7.13;;;;;;;;;;5065806;28;20238;-52
2023/03/10 12:56:05;;;;;;;7.17;5.97;;;;;;;;;;5064753;28;20314;-51
2023/03/10 12:58:34;;;;;;;6.33;5.73;;;;;;;;;;5065915;28;20326;-51
2023/03/10 13:01:01;;;;;;;9.00;5.63;;;;;;;;;;5063781;28;20235;-52
2023/03/10 13:03:30;;;;;;;6.80;5.40;;;;;;;;;;5065073;28;20237;-52
2023/03/10 13:06:01;;;;;;;6.00;5.50;;;;;;;;;;5064961;28;20235;-51
2023/03/10 13:08:33;;;;;;;6.83;6.10;;;;;;;;;;5064794;28;20250;-52
2023/03/10 13:11:00;;;;;;;6.00;5.40;;;;;;;;;;5063541;28;20231;-52
2023/03/10 13:13:29;;;;;;;6.37;5.73;;;;;;;;;;5063491;28;20235;-52
2023/03/10 13:15:59;;;;;;;6.03;5.47;;;;;;;;;;5065586;28;20249;-54
2023/03/10 13:18:25;;;;;;;6.03;5.53;;;;;;;;;;5063590;28;20318;-50
2023/03/10 13:20:51;;;;;;;5.40;4.80;;;;;;;;;;5063149;28;20252;-52
2023/03/10 13:23:20;;;;;;;6.30;5.67;;;;;;;;;;5065030;28;20249;-51
2023/03/10 13:25:52;;;;;;;7.97;6.40;;;;;;;;;;5065990;28;20677;-52
2023/03/10 13:28:18;;;;;;;6.57;5.67;;;;;;;;;;5065052;28;20317;-51
2023/03/10 13:30:45;;;;;;;5.73;5.23;;;;;;;;;;5064580;28;20234;-52
2023/03/10 13:33:18;;;;;;;5.60;4.93;;;;;;;;;;5065412;28;20313;-52
2023/03/10 13:35:46;;;;;;;4.47;4.07;;;;;;;;;;5072432;28;20234;-55
2023/03/10 13:38:15;;;;;;;6.33;5.37;;;;;;;;;;5065585;28;20227;-52
2023/03/10 13:40:42;;;;;;;6.63;5.63;;;;;;;;;;5065289;28;20709;-51
2023/03/10 13:43:22;;;;;;;6.00;5.40;;;;;;;;;;5064307;28;20245;-52
2023/03/10 13:45:53;;;;;;;7.13;6.03;;;;;;;;;;5064548;28;20235;-52
2023/03/10 13:48:21;;;;;;;8.20;5.27;;;;;;;;;;5061455;28;20227;-51
2023/03/10 13:50:48;;;;;;;8.40;6.30;;;;;;;;;;5062190;28;20266;-53
2023/03/10 13:53:24;;;;;;;8.20;6.77;;;;;;;;;;5064590;28;20327;-50
2023/03/10 13:55:50;;;;;;;7.30;6.57;;;;;;;;;;5065404;28;20693;-52
2023/03/10 13:58:18;;;;;;;7.97;7.17;;;;;;;;;;5073793;28;20314;-51
2023/03/10 14:00:49;;;;;;;6.50;5.70;;;;;;;;;;5075987;28;20964;-57
2023/03/10 14:03:15;;;;;;;8.43;7.07;;;;;;;;;;5074432;28;20314;-52
2023/03/10 14:05:44;;;;;;;7.70;6.90;;;;;;;;;;5079268;28;20273;-53
2023/03/10 14:08:18;;;;;;;8.80;7.37;;;;;;;;;;5071879;28;20235;-53
2023/03/10 14:10:44;;;;;;;10.33;7.50;;;;;;;;;;5076507;28;20295;-51
2023/03/10 14:13:38;;;;;;;7.50;6.80;;;;;;;;;;5078050;28;20254;-51
2023/03/10 14:16:04;;;;;;;8.63;6.77;;;;;;;;;;5065402;28;20318;-51
2023/03/10 14:18:34;;;;;;;7.33;6.63;;;;;;;;;;5063437;28;20731;-51
2023/03/10 14:21:15;;;;;;;6.30;5.70;;;;;;;;;;5063923;28;20241;-51
2023/03/10 14:23:42;;;;;;;8.53;6.47;;;;;;;;;;5061803;28;20243;-51
2023/03/10 14:26:14;;;;;;;7.43;6.50;;;;;;;;;;5064286;28;20227;-51
2023/03/10 14:28:41;;;;;;;10.20;6.70;;;;;;;;;;5059571;28;20241;-52
2023/03/10 14:31:17;;;;;;;9.37;6.90;;;;;;;;;;5064035;28;20255;-51
2023/03/10 14:33:44;;;;;;;7.60;6.70;;;;;;;;;;5061550;28;20326;-52
2023/03/10 14:36:10;;;;;;;7.00;5.80;;;;;;;;;;5063545;28;20237;-52